Russia, Ohio
Current Conditions -  °F | °C
As of 5:15 AM on Thursday 23 Oct 2014 (Local Time) from KVES Reporting Station
Haze Haze  
Wind Chill: 36°   Ceiling: Unl
Heat Index: 36°   Visibility: 3mi
Dew Point: 36°   Wind: 3mph
Humidity: 100%   Direction: 350°N
Pressure: 30.25"   Gusts: NA
Location:  40.23°N, 84.41°W
Report Text: KVES 230915Z AUTO 35003KT 3SM BR CLR 02/02 A3025 RMK AO2
Loading
Personal Weather Stations






























Interactive Weather Map
Tropical Storm Tracking
New forecast layout! Learn more

10-Day Weather Forecast

Advertisements
Track Severe Weather on mobile